createdAt,value
2023-04-02T00:00:09.986Z,2.78
2023-04-02T00:02:59.209Z,6.82
2023-04-02T00:05:35.675Z,5.05
2023-04-02T00:08:18.854Z,3.63
2023-04-02T00:10:54.025Z,4.22
2023-04-02T00:13:41.781Z,3.95
2023-04-02T00:16:14.208Z,2.38
2023-04-02T00:18:50.376Z,3.05
2023-04-02T00:21:37.711Z,3.75
2023-04-02T00:24:23.135Z,5.05
2023-04-02T00:26:53.814Z,5.68
2023-04-02T00:29:22.586Z,5.30
2023-04-02T00:31:53.790Z,3.50
2023-04-02T00:34:40.541Z,5.82
2023-04-02T00:37:24.501Z,3.97
2023-04-02T00:40:02.967Z,4.28
2023-04-02T00:42:32.424Z,5.10
2023-04-02T00:45:02.984Z,6.95
2023-04-02T00:47:38.166Z,4.90
2023-04-02T00:50:19.031Z,4.68
2023-04-02T00:52:51.502Z,3.67
2023-04-02T00:55:27.948Z,4.63
2023-04-02T00:57:58.637Z,4.90
2023-04-02T01:00:37.408Z,3.90
2023-04-02T01:03:17.633Z,4.18
2023-04-02T01:05:51.007Z,6.22
2023-04-02T01:08:42.685Z,5.82
2023-04-02T01:11:34.899Z,3.75
2023-04-02T01:14:35.448Z,4.15
2023-04-02T01:17:43.456Z,7.40
2023-04-02T01:20:33.851Z,3.35
2023-04-02T01:23:08.408Z,4.30
2023-04-02T01:26:03.203Z,5.20
2023-04-02T01:28:53.214Z,3.72
2023-04-02T01:31:22.593Z,4.78
2023-04-02T01:33:51.291Z,3.60
2023-04-02T01:37:04.324Z,3.83
2023-04-02T01:40:03.896Z,4.47
2023-04-02T01:42:53.321Z,4.00
2023-04-02T01:45:24.042Z,3.90
2023-04-02T01:47:53.527Z,4.65
2023-04-02T01:50:53.001Z,4.53
2023-04-02T01:53:23.866Z,7.13
2023-04-02T01:55:55.532Z,5.90
2023-04-02T01:58:30.046Z,6.18
2023-04-02T02:01:15.743Z,4.40
2023-04-02T02:03:46.405Z,6.13
2023-04-02T02:06:18.084Z,8.23
2023-04-02T02:08:58.717Z,10.80
2023-04-02T02:11:29.519Z,9.85
2023-04-02T02:14:19.436Z,10.38
2023-04-02T02:16:48.519Z,11.25
2023-04-02T02:19:38.923Z,12.85
2023-04-02T02:22:29.125Z,13.52
2023-04-02T02:25:01.082Z,11.93
2023-04-02T02:27:29.160Z,14.65
2023-04-02T02:30:23.246Z,19.25
2023-04-02T02:33:04.734Z,23.98
2023-04-02T02:35:50.551Z,27.83
2023-04-02T02:38:49.544Z,24.33
2023-04-02T02:41:38.604Z,25.33
2023-04-02T02:44:29.725Z,23.15
2023-04-02T02:47:05.647Z,24.60
2023-04-02T02:49:40.287Z,30.13
2023-04-02T02:52:22.287Z,27.02
2023-04-02T02:55:01.980Z,29.40
2023-04-02T02:57:47.601Z,31.15
2023-04-02T03:00:20.242Z,28.15
2023-04-02T03:02:50.493Z,31.40
2023-04-02T03:05:24.441Z,32.88
2023-04-02T03:07:57.716Z,33.22
2023-04-02T03:10:39.794Z,31.15
2023-04-02T03:13:24.674Z,32.95
2023-04-02T03:16:03.465Z,29.80
2023-04-02T03:18:45.439Z,28.45
2023-04-02T03:21:26.565Z,35.95
2023-04-02T03:24:23.640Z,32.63
2023-04-02T03:27:28.958Z,31.00
2023-04-02T03:30:31.917Z,29.17
2023-04-02T03:33:11.877Z,28.73
2023-04-02T03:36:24.426Z,29.15
2023-04-02T03:39:45.318Z,27.83
2023-04-02T03:42:28.678Z,29.15
2023-04-02T03:45:06.519Z,31.55
2023-04-02T03:47:46.757Z,28.23
2023-04-02T03:50:38.278Z,30.48
2023-04-02T03:53:07.437Z,32.03
2023-04-02T03:55:41.840Z,30.63
2023-04-02T03:58:44.872Z,29.63
2023-04-02T04:01:34.926Z,33.50
2023-04-02T04:04:19.862Z,35.38
2023-04-02T04:06:52.820Z,31.48
2023-04-02T04:09:27.859Z,34.03
2023-04-02T04:12:35.227Z,33.15
2023-04-02T04:15:37.117Z,29.00
2023-04-02T04:18:35.228Z,31.85
2023-04-02T04:21:30.706Z,29.35
2023-04-02T04:24:16.659Z,31.90
2023-04-02T04:26:53.955Z,30.85
2023-04-02T04:29:46.016Z,34.83
2023-04-02T04:32:39.432Z,35.30
2023-04-02T04:35:29.708Z,31.45
2023-04-02T04:38:08.458Z,33.63
2023-04-02T04:40:43.064Z,33.90
2023-04-02T04:43:22.339Z,30.48
2023-04-02T04:46:09.350Z,29.08
2023-04-02T04:48:47.135Z,38.25
2023-04-02T04:51:26.545Z,37.88
2023-04-02T04:53:57.031Z,34.50
2023-04-02T04:56:32.212Z,38.33
2023-04-02T04:59:25.418Z,36.35
2023-04-02T05:02:09.346Z,29.40
2023-04-02T05:04:42.870Z,31.20
2023-04-02T05:07:37.221Z,29.10
2023-04-02T05:10:28.000Z,28.27
2023-04-02T05:13:11.589Z,30.77
2023-04-02T05:15:47.649Z,29.48
2023-04-02T05:18:40.038Z,28.67
2023-04-02T05:21:34.639Z,27.75
2023-04-02T05:24:26.647Z,29.30
2023-04-02T05:27:02.192Z,26.00
2023-04-02T05:29:37.735Z,25.73
2023-04-02T05:32:14.844Z,29.23
2023-04-02T05:34:49.889Z,33.85
2023-04-02T05:37:22.420Z,34.25
2023-04-02T05:39:57.462Z,36.10
2023-04-02T05:42:31.696Z,34.90
2023-04-02T19:09:41.891Z,11.77
2023-04-02T19:12:17.418Z,19.38
2023-04-02T19:14:50.254Z,16.08
2023-04-02T19:17:34.122Z,22.90
2023-04-02T19:20:08.401Z,17.00
2023-04-02T19:22:47.267Z,15.77
2023-04-02T19:25:34.731Z,9.13
2023-04-02T19:28:15.149Z,6.97
2023-04-02T19:31:25.131Z,11.05
2023-04-02T19:34:00.230Z,8.63
2023-04-02T19:36:34.668Z,4.47
2023-04-02T19:39:17.867Z,4.45
2023-04-02T19:41:54.604Z,3.97
2023-04-02T19:44:22.971Z,6.35
2023-04-02T19:46:51.989Z,7.60
2023-04-02T19:49:41.153Z,5.82
2023-04-02T19:52:24.068Z,3.90
2023-04-02T19:54:56.135Z,6.05
2023-04-02T19:57:24.425Z,6.80
2023-04-02T19:59:52.826Z,6.60
2023-04-02T20:02:21.300Z,5.20
2023-04-02T20:04:49.605Z,9.77
2023-04-02T20:07:17.880Z,11.23
2023-04-02T20:09:46.520Z,12.52
2023-04-02T20:12:14.859Z,12.02
2023-04-02T20:14:43.251Z,9.85
2023-04-02T20:17:11.450Z,12.38
2023-04-02T20:19:39.603Z,16.30
2023-04-02T20:22:07.864Z,28.65
2023-04-02T20:24:36.228Z,33.03
2023-04-02T20:27:04.594Z,23.38
2023-04-02T20:29:59.797Z,29.90
2023-04-02T20:32:31.480Z,36.20
2023-04-02T20:35:00.034Z,22.17
2023-04-02T20:37:28.604Z,17.63
2023-04-02T20:39:59.722Z,17.00
2023-04-02T20:42:28.502Z,14.73
2023-04-02T20:44:57.084Z,18.92
2023-04-02T20:47:25.483Z,19.15
2023-04-02T20:49:53.850Z,71.88
2023-04-02T20:52:22.566Z,96.45
2023-04-02T20:54:51.460Z,46.30
2023-04-02T20:57:22.363Z,38.80
2023-04-02T20:59:50.766Z,24.98
2023-04-02T21:02:19.102Z,23.83
2023-04-02T21:04:47.508Z,18.98
2023-04-02T21:07:16.081Z,15.70
2023-04-02T21:09:44.201Z,13.02
2023-04-02T21:12:12.649Z,13.63
2023-04-02T21:14:41.083Z,11.40
2023-04-02T21:17:09.278Z,8.40
2023-04-02T21:19:37.449Z,9.63
2023-04-02T21:22:05.723Z,5.68
2023-04-02T21:24:33.917Z,5.45
2023-04-02T21:27:02.119Z,6.47
2023-04-02T21:29:30.759Z,5.57
2023-04-02T21:32:01.543Z,4.80
2023-04-02T21:34:34.159Z,4.30
2023-04-02T21:37:02.653Z,4.55
2023-04-02T21:39:31.639Z,6.55
2023-04-02T21:41:59.937Z,5.82
2023-04-02T21:44:28.220Z,6.00
2023-04-02T21:46:57.003Z,5.30
2023-04-02T21:49:26.753Z,5.30
2023-04-02T21:51:55.028Z,152.05
2023-04-02T21:54:23.562Z,155.70
2023-04-02T21:56:53.034Z,98.50
2023-04-02T21:59:21.229Z,50.10
2023-04-02T22:01:51.391Z,22.05
2023-04-02T22:04:25.457Z,12.88
2023-04-02T22:06:54.268Z,62.33
2023-04-02T22:09:25.030Z,29.40
2023-04-02T22:11:56.440Z,19.75
2023-04-02T22:14:24.601Z,22.45
2023-04-02T22:16:52.819Z,17.02
2023-04-02T22:19:21.775Z,10.85
2023-04-02T22:21:50.419Z,9.40
2023-04-02T22:24:19.746Z,16.00
2023-04-02T22:26:48.614Z,7.50
2023-04-02T22:29:17.377Z,11.15
2023-04-02T22:31:46.811Z,8.43
2023-04-02T22:34:15.050Z,7.45
2023-04-02T22:36:43.290Z,8.80
2023-04-02T22:39:12.628Z,8.07
2023-04-02T22:41:41.429Z,7.55
2023-04-02T22:44:14.575Z,5.90
2023-04-02T22:46:42.780Z,8.68
2023-04-02T22:49:12.403Z,8.02
2023-04-02T22:51:40.453Z,6.82
2023-04-02T22:54:08.496Z,7.70
2023-04-02T22:56:37.793Z,8.80
2023-04-02T22:59:06.176Z,9.35
2023-04-02T23:01:36.481Z,9.02
2023-04-02T23:04:05.654Z,7.00
2023-04-02T23:06:34.133Z,6.95
2023-04-02T23:09:02.435Z,11.40
2023-04-02T23:11:30.712Z,9.27
2023-04-02T23:13:59.511Z,6.85
2023-04-02T23:16:29.910Z,9.50
2023-04-02T23:18:58.549Z,7.30
2023-04-02T23:21:27.857Z,7.22
2023-04-02T23:23:56.688Z,6.28
2023-04-02T23:26:31.562Z,9.13
2023-04-02T23:29:01.011Z,6.88
2023-04-02T23:31:29.401Z,5.40
2023-04-02T23:33:57.654Z,5.97
2023-04-02T23:36:25.785Z,9.80
2023-04-02T23:38:56.103Z,7.20
2023-04-02T23:41:27.226Z,8.45
2023-04-02T23:43:56.934Z,7.47
2023-04-02T23:46:26.400Z,7.75
2023-04-02T23:48:56.210Z,8.82
2023-04-02T23:51:25.048Z,7.63
2023-04-02T23:53:55.658Z,6.70
2023-04-02T23:56:25.022Z,6.25
2023-04-02T23:58:53.294Z,7.05
